sensor_id;sensor_type;location;lat;lon;timestamp;P1;durP1;ratioP1;P2;durP2;ratioP2
75156;SDS011;63736;50.076;8.198;2023-04-21T00:01:05;694.83;;;198.07;;
75156;SDS011;63736;50.076;8.198;2023-04-21T00:03:32;691.40;;;195.90;;
75156;SDS011;63736;50.076;8.198;2023-04-21T00:06:01;687.08;;;193.43;;
75156;SDS011;63736;50.076;8.198;2023-04-21T00:08:27;684.27;;;195.50;;
75156;SDS011;63736;50.076;8.198;2023-04-21T00:10:52;684.17;;;196.00;;
75156;SDS011;63736;50.076;8.198;2023-04-21T00:13:17;675.30;;;191.10;;
75156;SDS011;63736;50.076;8.198;2023-04-21T00:15:42;668.07;;;187.00;;
75156;SDS011;63736;50.076;8.198;2023-04-21T00:18:08;672.17;;;189.77;;
75156;SDS011;63736;50.076;8.198;2023-04-21T00:20:33;676.03;;;192.83;;
75156;SDS011;63736;50.076;8.198;2023-04-21T00:22:59;690.92;;;198.23;;
75156;SDS011;63736;50.076;8.198;2023-04-21T00:25:25;706.63;;;205.87;;
75156;SDS011;63736;50.076;8.198;2023-04-21T00:27:50;717.00;;;207.20;;
75156;SDS011;63736;50.076;8.198;2023-04-21T00:30:16;745.27;;;217.13;;
75156;SDS011;63736;50.076;8.198;2023-04-21T00:32:41;767.07;;;224.70;;
75156;SDS011;63736;50.076;8.198;2023-04-21T00:35:07;801.60;;;241.97;;
75156;SDS011;63736;50.076;8.198;2023-04-21T00:37:32;773.72;;;230.02;;
75156;SDS011;63736;50.076;8.198;2023-04-21T00:39:58;771.63;;;231.07;;
75156;SDS011;63736;50.076;8.198;2023-04-21T00:42:23;770.90;;;230.33;;
75156;SDS011;63736;50.076;8.198;2023-04-21T00:44:49;786.22;;;239.32;;
75156;SDS011;63736;50.076;8.198;2023-04-21T00:47:16;783.42;;;237.95;;
75156;SDS011;63736;50.076;8.198;2023-04-21T00:49:41;779.97;;;234.53;;
75156;SDS011;63736;50.076;8.198;2023-04-21T00:52:06;786.10;;;238.43;;
75156;SDS011;63736;50.076;8.198;2023-04-21T00:54:33;800.13;;;245.98;;
75156;SDS011;63736;50.076;8.198;2023-04-21T00:56:59;794.53;;;243.48;;
75156;SDS011;63736;50.076;8.198;2023-04-21T00:59:26;827.65;;;259.77;;
75156;SDS011;63736;50.076;8.198;2023-04-21T01:01:51;820.70;;;256.80;;
75156;SDS011;63736;50.076;8.198;2023-04-21T01:04:16;818.57;;;255.17;;
75156;SDS011;63736;50.076;8.198;2023-04-21T01:06:42;822.43;;;258.80;;
75156;SDS011;63736;50.076;8.198;2023-04-21T01:09:08;825.90;;;261.55;;
75156;SDS011;63736;50.076;8.198;2023-04-21T01:11:33;821.07;;;261.43;;
75156;SDS011;63736;50.076;8.198;2023-04-21T01:13:59;824.35;;;261.02;;
75156;SDS011;63736;50.076;8.198;2023-04-21T01:16:24;831.23;;;265.13;;
75156;SDS011;63736;50.076;8.198;2023-04-21T01:18:50;840.92;;;270.83;;
75156;SDS011;63736;50.076;8.198;2023-04-21T01:21:17;847.23;;;273.30;;
75156;SDS011;63736;50.076;8.198;2023-04-21T01:23:43;846.55;;;272.55;;
75156;SDS011;63736;50.076;8.198;2023-04-21T01:26:09;853.30;;;277.33;;
75156;SDS011;63736;50.076;8.198;2023-04-21T01:28:34;863.33;;;283.03;;
75156;SDS011;63736;50.076;8.198;2023-04-21T01:31:00;853.93;;;277.37;;
75156;SDS011;63736;50.076;8.198;2023-04-21T01:33:25;848.45;;;277.27;;
75156;SDS011;63736;50.076;8.198;2023-04-21T01:35:50;849.73;;;282.00;;
75156;SDS011;63736;50.076;8.198;2023-04-21T01:38:16;854.90;;;287.47;;
75156;SDS011;63736;50.076;8.198;2023-04-21T01:40:43;838.00;;;280.45;;
75156;SDS011;63736;50.076;8.198;2023-04-21T01:43:13;790.50;;;257.02;;
75156;SDS011;63736;50.076;8.198;2023-04-21T01:45:40;753.80;;;239.37;;
75156;SDS011;63736;50.076;8.198;2023-04-21T01:48:05;736.80;;;237.00;;
75156;SDS011;63736;50.076;8.198;2023-04-21T01:50:30;711.30;;;223.20;;
75156;SDS011;63736;50.076;8.198;2023-04-21T01:52:56;559.97;;;161.63;;
75156;SDS011;63736;50.076;8.198;2023-04-21T01:55:21;544.43;;;157.77;;
75156;SDS011;63736;50.076;8.198;2023-04-21T01:57:46;534.60;;;154.77;;
75156;SDS011;63736;50.076;8.198;2023-04-21T02:00:12;531.87;;;153.13;;
75156;SDS011;63736;50.076;8.198;2023-04-21T02:02:38;522.50;;;148.20;;
75156;SDS011;63736;50.076;8.198;2023-04-21T02:05:04;522.53;;;147.50;;
75156;SDS011;63736;50.076;8.198;2023-04-21T02:07:29;521.85;;;147.18;;
75156;SDS011;63736;50.076;8.198;2023-04-21T02:09:55;529.10;;;150.33;;
75156;SDS011;63736;50.076;8.198;2023-04-21T02:12:20;521.63;;;149.67;;
75156;SDS011;63736;50.076;8.198;2023-04-21T02:14:46;512.83;;;148.45;;
75156;SDS011;63736;50.076;8.198;2023-04-21T02:17:12;508.83;;;146.38;;
75156;SDS011;63736;50.076;8.198;2023-04-21T02:19:38;502.47;;;142.87;;
75156;SDS011;63736;50.076;8.198;2023-04-21T02:22:03;509.40;;;145.63;;
75156;SDS011;63736;50.076;8.198;2023-04-21T02:24:30;507.87;;;144.77;;
75156;SDS011;63736;50.076;8.198;2023-04-21T02:26:56;513.27;;;147.03;;
75156;SDS011;63736;50.076;8.198;2023-04-21T02:29:22;512.10;;;147.00;;
75156;SDS011;63736;50.076;8.198;2023-04-21T02:31:47;513.43;;;146.90;;
75156;SDS011;63736;50.076;8.198;2023-04-21T02:34:13;512.67;;;146.83;;
75156;SDS011;63736;50.076;8.198;2023-04-21T02:36:38;503.40;;;142.73;;
75156;SDS011;63736;50.076;8.198;2023-04-21T02:39:03;508.03;;;144.07;;
75156;SDS011;63736;50.076;8.198;2023-04-21T02:41:29;504.13;;;144.13;;
75156;SDS011;63736;50.076;8.198;2023-04-21T02:43:54;505.20;;;145.20;;
75156;SDS011;63736;50.076;8.198;2023-04-21T02:46:19;503.03;;;142.50;;
75156;SDS011;63736;50.076;8.198;2023-04-21T02:48:45;500.60;;;143.23;;
75156;SDS011;63736;50.076;8.198;2023-04-21T02:51:11;495.27;;;138.90;;
75156;SDS011;63736;50.076;8.198;2023-04-21T02:53:37;491.30;;;137.40;;
75156;SDS011;63736;50.076;8.198;2023-04-21T02:56:03;487.17;;;137.10;;
75156;SDS011;63736;50.076;8.198;2023-04-21T02:58:29;490.73;;;140.63;;
75156;SDS011;63736;50.076;8.198;2023-04-21T03:00:54;491.13;;;140.90;;
75156;SDS011;63736;50.076;8.198;2023-04-21T03:03:20;488.03;;;139.47;;
75156;SDS011;63736;50.076;8.198;2023-04-21T03:05:45;494.40;;;140.95;;
75156;SDS011;63736;50.076;8.198;2023-04-21T03:08:10;491.87;;;142.43;;
75156;SDS011;63736;50.076;8.198;2023-04-21T03:10:36;495.97;;;142.17;;
75156;SDS011;63736;50.076;8.198;2023-04-21T03:13:02;495.08;;;142.00;;
75156;SDS011;63736;50.076;8.198;2023-04-21T03:15:27;490.30;;;139.40;;
75156;SDS011;63736;50.076;8.198;2023-04-21T03:17:53;494.53;;;141.97;;
75156;SDS011;63736;50.076;8.198;2023-04-21T03:20:18;489.08;;;137.80;;
75156;SDS011;63736;50.076;8.198;2023-04-21T03:22:44;494.40;;;141.10;;
75156;SDS011;63736;50.076;8.198;2023-04-21T03:25:09;490.57;;;138.73;;
75156;SDS011;63736;50.076;8.198;2023-04-21T03:27:35;490.23;;;138.07;;
75156;SDS011;63736;50.076;8.198;2023-04-21T03:30:01;486.33;;;136.00;;
75156;SDS011;63736;50.076;8.198;2023-04-21T03:32:26;481.43;;;135.27;;
75156;SDS011;63736;50.076;8.198;2023-04-21T03:34:52;480.02;;;134.60;;
75156;SDS011;63736;50.076;8.198;2023-04-21T03:37:17;481.23;;;136.93;;
75156;SDS011;63736;50.076;8.198;2023-04-21T03:39:42;490.80;;;140.50;;
75156;SDS011;63736;50.076;8.198;2023-04-21T03:42:08;489.63;;;140.20;;
75156;SDS011;63736;50.076;8.198;2023-04-21T03:44:33;483.13;;;136.80;;
75156;SDS011;63736;50.076;8.198;2023-04-21T03:46:58;487.27;;;138.53;;
75156;SDS011;63736;50.076;8.198;2023-04-21T03:49:24;485.17;;;139.30;;
75156;SDS011;63736;50.076;8.198;2023-04-21T03:51:49;482.97;;;139.60;;
75156;SDS011;63736;50.076;8.198;2023-04-21T03:54:14;483.23;;;138.33;;
75156;SDS011;63736;50.076;8.198;2023-04-21T03:56:40;484.57;;;138.60;;
75156;SDS011;63736;50.076;8.198;2023-04-21T03:59:05;485.13;;;138.97;;
75156;SDS011;63736;50.076;8.198;2023-04-21T04:01:31;488.67;;;140.77;;
75156;SDS011;63736;50.076;8.198;2023-04-21T04:03:57;478.80;;;135.57;;
75156;SDS011;63736;50.076;8.198;2023-04-21T04:06:22;479.10;;;134.73;;
75156;SDS011;63736;50.076;8.198;2023-04-21T04:08:47;477.93;;;135.13;;
75156;SDS011;63736;50.076;8.198;2023-04-21T04:11:12;479.97;;;136.80;;
75156;SDS011;63736;50.076;8.198;2023-04-21T04:13:38;486.57;;;140.17;;
75156;SDS011;63736;50.076;8.198;2023-04-21T04:16:03;482.33;;;139.90;;
75156;SDS011;63736;50.076;8.198;2023-04-21T04:18:29;481.30;;;139.03;;
75156;SDS011;63736;50.076;8.198;2023-04-21T04:20:54;479.10;;;137.23;;
75156;SDS011;63736;50.076;8.198;2023-04-21T04:23:19;477.80;;;135.07;;
75156;SDS011;63736;50.076;8.198;2023-04-21T04:25:45;476.88;;;135.15;;
75156;SDS011;63736;50.076;8.198;2023-04-21T04:28:11;480.27;;;136.40;;
75156;SDS011;63736;50.076;8.198;2023-04-21T04:30:37;483.57;;;139.43;;
75156;SDS011;63736;50.076;8.198;2023-04-21T04:33:02;492.50;;;141.40;;
75156;SDS011;63736;50.076;8.198;2023-04-21T04:35:28;480.73;;;137.17;;
75156;SDS011;63736;50.076;8.198;2023-04-21T04:37:54;490.23;;;141.40;;
75156;SDS011;63736;50.076;8.198;2023-04-21T04:40:21;494.90;;;141.33;;
75156;SDS011;63736;50.076;8.198;2023-04-21T04:42:46;499.25;;;143.32;;
75156;SDS011;63736;50.076;8.198;2023-04-21T04:45:12;508.80;;;146.07;;
75156;SDS011;63736;50.076;8.198;2023-04-21T04:47:38;536.20;;;156.90;;
75156;SDS011;63736;50.076;8.198;2023-04-21T04:50:04;560.27;;;179.13;;
75156;SDS011;63736;50.076;8.198;2023-04-21T04:52:30;430.98;;;125.85;;
75156;SDS011;63736;50.076;8.198;2023-04-21T04:54:55;419.20;;;121.63;;
75156;SDS011;63736;50.076;8.198;2023-04-21T04:57:21;419.43;;;122.60;;
75156;SDS011;63736;50.076;8.198;2023-04-21T04:59:46;408.83;;;120.43;;
75156;SDS011;63736;50.076;8.198;2023-04-21T05:02:11;401.63;;;117.77;;
75156;SDS011;63736;50.076;8.198;2023-04-21T05:04:37;396.50;;;114.60;;
75156;SDS011;63736;50.076;8.198;2023-04-21T05:07:03;404.70;;;119.33;;
75156;SDS011;63736;50.076;8.198;2023-04-21T05:09:30;397.33;;;115.30;;
75156;SDS011;63736;50.076;8.198;2023-04-21T05:11:55;404.17;;;119.57;;
75156;SDS011;63736;50.076;8.198;2023-04-21T05:14:20;397.10;;;116.45;;
75156;SDS011;63736;50.076;8.198;2023-04-21T05:16:46;390.13;;;113.20;;
75156;SDS011;63736;50.076;8.198;2023-04-21T05:19:11;387.53;;;113.60;;
75156;SDS011;63736;50.076;8.198;2023-04-21T05:21:36;390.30;;;113.97;;
75156;SDS011;63736;50.076;8.198;2023-04-21T05:24:01;394.97;;;115.93;;
75156;SDS011;63736;50.076;8.198;2023-04-21T05:26:27;395.27;;;116.60;;
75156;SDS011;63736;50.076;8.198;2023-04-21T05:28:53;400.30;;;117.72;;
75156;SDS011;63736;50.076;8.198;2023-04-21T05:31:20;421.67;;;121.95;;
75156;SDS011;63736;50.076;8.198;2023-04-21T05:33:45;424.60;;;121.70;;
75156;SDS011;63736;50.076;8.198;2023-04-21T05:36:10;448.17;;;128.77;;
75156;SDS011;63736;50.076;8.198;2023-04-21T05:38:36;438.40;;;125.17;;
75156;SDS011;63736;50.076;8.198;2023-04-21T05:41:02;420.25;;;120.85;;
75156;SDS011;63736;50.076;8.198;2023-04-21T05:43:28;401.20;;;116.32;;
75156;SDS011;63736;50.076;8.198;2023-04-21T05:45:54;403.87;;;115.03;;
75156;SDS011;63736;50.076;8.198;2023-04-21T05:48:19;406.97;;;117.23;;
75156;SDS011;63736;50.076;8.198;2023-04-21T05:50:45;387.70;;;113.90;;
75156;SDS011;63736;50.076;8.198;2023-04-21T05:53:10;376.67;;;112.00;;
75156;SDS011;63736;50.076;8.198;2023-04-21T05:55:35;366.83;;;108.27;;
75156;SDS011;63736;50.076;8.198;2023-04-21T05:58:01;356.98;;;105.38;;
75156;SDS011;63736;50.076;8.198;2023-04-21T06:00:28;354.08;;;106.80;;
75156;SDS011;63736;50.076;8.198;2023-04-21T06:02:53;357.07;;;105.60;;
75156;SDS011;63736;50.076;8.198;2023-04-21T06:05:18;334.90;;;102.70;;
75156;SDS011;63736;50.076;8.198;2023-04-21T06:07:44;327.38;;;100.47;;
75156;SDS011;63736;50.076;8.198;2023-04-21T06:10:09;304.30;;;93.80;;
75156;SDS011;63736;50.076;8.198;2023-04-21T06:12:35;296.73;;;94.60;;
75156;SDS011;63736;50.076;8.198;2023-04-21T06:15:01;265.17;;;84.60;;
75156;SDS011;63736;50.076;8.198;2023-04-21T06:17:26;285.03;;;90.80;;
75156;SDS011;63736;50.076;8.198;2023-04-21T06:19:51;274.48;;;88.78;;
75156;SDS011;63736;50.076;8.198;2023-04-21T06:22:23;341.40;;;102.27;;
75156;SDS011;63736;50.076;8.198;2023-04-21T06:24:49;378.35;;;108.53;;
75156;SDS011;63736;50.076;8.198;2023-04-21T06:27:15;455.77;;;123.97;;
75156;SDS011;63736;50.076;8.198;2023-04-21T06:29:41;470.70;;;128.35;;
75156;SDS011;63736;50.076;8.198;2023-04-21T06:32:07;456.50;;;124.95;;
75156;SDS011;63736;50.076;8.198;2023-04-21T06:34:33;464.50;;;126.07;;
75156;SDS011;63736;50.076;8.198;2023-04-21T06:36:58;480.45;;;131.73;;
75156;SDS011;63736;50.076;8.198;2023-04-21T06:39:24;617.63;;;179.60;;
75156;SDS011;63736;50.076;8.198;2023-04-21T06:41:49;392.77;;;112.10;;
75156;SDS011;63736;50.076;8.198;2023-04-21T06:44:14;379.60;;;108.83;;
75156;SDS011;63736;50.076;8.198;2023-04-21T06:46:40;402.57;;;112.77;;
75156;SDS011;63736;50.076;8.198;2023-04-21T06:49:08;401.10;;;112.87;;
75156;SDS011;63736;50.076;8.198;2023-04-21T06:51:34;441.40;;;119.90;;
75156;SDS011;63736;50.076;8.198;2023-04-21T06:54:01;477.65;;;127.05;;
75156;SDS011;63736;50.076;8.198;2023-04-21T06:56:26;536.17;;;145.57;;
75156;SDS011;63736;50.076;8.198;2023-04-21T06:58:52;526.70;;;140.33;;
75156;SDS011;63736;50.076;8.198;2023-04-21T07:01:17;496.20;;;132.40;;
75156;SDS011;63736;50.076;8.198;2023-04-21T07:03:42;468.27;;;125.90;;
75156;SDS011;63736;50.076;8.198;2023-04-21T07:06:08;461.73;;;125.50;;
75156;SDS011;63736;50.076;8.198;2023-04-21T07:08:33;443.33;;;121.53;;
75156;SDS011;63736;50.076;8.198;2023-04-21T07:10:58;437.07;;;119.47;;
75156;SDS011;63736;50.076;8.198;2023-04-21T07:13:24;434.50;;;119.07;;
75156;SDS011;63736;50.076;8.198;2023-04-21T07:15:49;418.50;;;116.77;;
75156;SDS011;63736;50.076;8.198;2023-04-21T07:18:15;415.37;;;116.57;;
75156;SDS011;63736;50.076;8.198;2023-04-21T07:20:40;423.47;;;123.17;;
75156;SDS011;63736;50.076;8.198;2023-04-21T07:23:05;419.93;;;120.53;;
75156;SDS011;63736;50.076;8.198;2023-04-21T07:25:31;422.20;;;120.38;;
75156;SDS011;63736;50.076;8.198;2023-04-21T07:27:56;533.97;;;145.83;;
75156;SDS011;63736;50.076;8.198;2023-04-21T07:30:21;639.87;;;180.83;;
75156;SDS011;63736;50.076;8.198;2023-04-21T07:32:46;656.67;;;189.17;;
75156;SDS011;63736;50.076;8.198;2023-04-21T07:35:12;681.43;;;196.87;;
75156;SDS011;63736;50.076;8.198;2023-04-21T07:37:37;670.87;;;193.00;;
75156;SDS011;63736;50.076;8.198;2023-04-21T07:40:04;328.77;;;100.15;;
75156;SDS011;63736;50.076;8.198;2023-04-21T07:42:31;267.02;;;86.88;;
75156;SDS011;63736;50.076;8.198;2023-04-21T07:44:56;249.97;;;84.40;;
75156;SDS011;63736;50.076;8.198;2023-04-21T07:47:21;233.20;;;79.30;;
75156;SDS011;63736;50.076;8.198;2023-04-21T07:49:47;231.40;;;80.13;;
75156;SDS011;63736;50.076;8.198;2023-04-21T07:52:12;222.40;;;78.53;;
75156;SDS011;63736;50.076;8.198;2023-04-21T07:54:37;216.47;;;77.10;;
75156;SDS011;63736;50.076;8.198;2023-04-21T07:57:02;210.67;;;76.03;;
75156;SDS011;63736;50.076;8.198;2023-04-21T07:59:28;215.47;;;78.63;;
75156;SDS011;63736;50.076;8.198;2023-04-21T08:01:53;216.87;;;79.00;;
75156;SDS011;63736;50.076;8.198;2023-04-21T08:04:19;206.57;;;75.87;;
75156;SDS011;63736;50.076;8.198;2023-04-21T08:06:44;200.10;;;74.97;;
75156;SDS011;63736;50.076;8.198;2023-04-21T08:09:10;187.10;;;71.93;;
75156;SDS011;63736;50.076;8.198;2023-04-21T08:11:36;181.00;;;72.37;;
75156;SDS011;63736;50.076;8.198;2023-04-21T08:14:01;170.97;;;68.97;;
75156;SDS011;63736;50.076;8.198;2023-04-21T08:16:28;162.53;;;67.40;;
75156;SDS011;63736;50.076;8.198;2023-04-21T08:18:53;152.45;;;65.07;;
75156;SDS011;63736;50.076;8.198;2023-04-21T08:21:18;155.20;;;66.27;;
75156;SDS011;63736;50.076;8.198;2023-04-21T08:23:44;153.33;;;67.47;;
75156;SDS011;63736;50.076;8.198;2023-04-21T08:26:09;140.07;;;62.53;;
75156;SDS011;63736;50.076;8.198;2023-04-21T08:28:35;134.60;;;61.27;;
75156;SDS011;63736;50.076;8.198;2023-04-21T08:31:00;141.33;;;63.40;;
75156;SDS011;63736;50.076;8.198;2023-04-21T08:33:26;155.45;;;67.75;;
75156;SDS011;63736;50.076;8.198;2023-04-21T08:35:51;249.57;;;85.07;;
75156;SDS011;63736;50.076;8.198;2023-04-21T08:38:16;206.57;;;77.33;;
75156;SDS011;63736;50.076;8.198;2023-04-21T08:40:42;187.17;;;71.73;;
75156;SDS011;63736;50.076;8.198;2023-04-21T08:43:07;143.52;;;64.95;;
75156;SDS011;63736;50.076;8.198;2023-04-21T08:45:33;167.17;;;70.47;;
75156;SDS011;63736;50.076;8.198;2023-04-21T08:48:00;110.82;;;58.35;;
75156;SDS011;63736;50.076;8.198;2023-04-21T08:50:27;83.25;;;50.35;;
75156;SDS011;63736;50.076;8.198;2023-04-21T08:52:54;171.43;;;71.20;;
75156;SDS011;63736;50.076;8.198;2023-04-21T08:55:23;37.63;;;16.92;;
75156;SDS011;63736;50.076;8.198;2023-04-21T08:57:50;51.45;;;33.97;;
75156;SDS011;63736;50.076;8.198;2023-04-21T09:00:15;35.03;;;20.43;;
75156;SDS011;63736;50.076;8.198;2023-04-21T09:02:54;100.20;;;54.80;;
75156;SDS011;63736;50.076;8.198;2023-04-21T09:05:24;136.88;;;63.97;;
75156;SDS011;63736;50.076;8.198;2023-04-21T09:08:07;193.05;;;79.50;;
75156;SDS011;63736;50.076;8.198;2023-04-21T09:10:47;162.13;;;72.38;;
75156;SDS011;63736;50.076;8.198;2023-04-21T09:13:14;45.72;;;26.98;;
75156;SDS011;63736;50.076;8.198;2023-04-21T09:15:40;31.43;;;15.07;;
75156;SDS011;63736;50.076;8.198;2023-04-21T09:18:11;30.27;;;14.77;;
75156;SDS011;63736;50.076;8.198;2023-04-21T09:20:38;184.07;;;72.90;;
75156;SDS011;63736;50.076;8.198;2023-04-21T09:23:04;172.30;;;75.78;;
75156;SDS011;63736;50.076;8.198;2023-04-21T09:25:30;246.10;;;90.00;;
75156;SDS011;63736;50.076;8.198;2023-04-21T09:27:56;280.73;;;97.50;;
75156;SDS011;63736;50.076;8.198;2023-04-21T09:30:22;351.35;;;109.97;;
75156;SDS011;63736;50.076;8.198;2023-04-21T09:32:48;412.03;;;121.10;;
75156;SDS011;63736;50.076;8.198;2023-04-21T09:35:13;344.95;;;107.63;;
75156;SDS011;63736;50.076;8.198;2023-04-21T09:37:39;203.37;;;81.80;;
75156;SDS011;63736;50.076;8.198;2023-04-21T09:40:07;247.27;;;90.38;;
75156;SDS011;63736;50.076;8.198;2023-04-21T09:42:36;307.65;;;101.45;;
75156;SDS011;63736;50.076;8.198;2023-04-21T09:45:02;371.37;;;113.53;;
75156;SDS011;63736;50.076;8.198;2023-04-21T09:47:28;423.17;;;122.30;;
75156;SDS011;63736;50.076;8.198;2023-04-21T09:49:57;463.23;;;128.13;;
75156;SDS011;63736;50.076;8.198;2023-04-21T09:52:22;495.42;;;134.35;;
75156;SDS011;63736;50.076;8.198;2023-04-21T09:54:49;531.60;;;141.03;;
75156;SDS011;63736;50.076;8.198;2023-04-21T09:57:25;542.60;;;143.38;;
75156;SDS011;63736;50.076;8.198;2023-04-21T09:59:55;556.38;;;145.85;;
75156;SDS011;63736;50.076;8.198;2023-04-21T10:02:25;568.55;;;148.80;;
75156;SDS011;63736;50.076;8.198;2023-04-21T10:04:55;554.00;;;145.93;;
75156;SDS011;63736;50.076;8.198;2023-04-21T10:07:20;552.72;;;146.18;;
75156;SDS011;63736;50.076;8.198;2023-04-21T10:09:50;561.85;;;148.02;;
75156;SDS011;63736;50.076;8.198;2023-04-21T10:12:19;584.17;;;153.93;;
75156;SDS011;63736;50.076;8.198;2023-04-21T10:14:53;623.03;;;160.45;;
75156;SDS011;63736;50.076;8.198;2023-04-21T10:17:23;624.45;;;163.75;;
75156;SDS011;63736;50.076;8.198;2023-04-21T10:19:53;572.50;;;150.68;;
75156;SDS011;63736;50.076;8.198;2023-04-21T10:22:33;555.80;;;146.88;;
75156;SDS011;63736;50.076;8.198;2023-04-21T10:25:01;548.33;;;146.27;;
75156;SDS011;63736;50.076;8.198;2023-04-21T10:29:56;614.38;;;159.88;;
75156;SDS011;63736;50.076;8.198;2023-04-21T10:32:38;617.17;;;159.38;;
75156;SDS011;63736;50.076;8.198;2023-04-21T10:35:07;619.40;;;160.93;;
75156;SDS011;63736;50.076;8.198;2023-04-21T10:37:34;625.40;;;163.93;;
75156;SDS011;63736;50.076;8.198;2023-04-21T10:40:00;626.60;;;163.77;;
75156;SDS011;63736;50.076;8.198;2023-04-21T10:42:25;635.40;;;165.70;;
75156;SDS011;63736;50.076;8.198;2023-04-21T10:45:00;638.05;;;167.20;;
75156;SDS011;63736;50.076;8.198;2023-04-21T10:47:31;636.37;;;166.67;;
75156;SDS011;63736;50.076;8.198;2023-04-21T10:50:09;639.67;;;167.95;;
75156;SDS011;63736;50.076;8.198;2023-04-21T10:52:46;691.17;;;184.10;;
75156;SDS011;63736;50.076;8.198;2023-04-21T10:55:16;675.00;;;176.90;;
75156;SDS011;63736;50.076;8.198;2023-04-21T10:57:43;673.27;;;179.43;;
75156;SDS011;63736;50.076;8.198;2023-04-21T11:00:09;679.20;;;178.30;;
75156;SDS011;63736;50.076;8.198;2023-04-21T11:02:38;699.63;;;185.75;;
75156;SDS011;63736;50.076;8.198;2023-04-21T11:05:03;685.83;;;184.47;;
75156;SDS011;63736;50.076;8.198;2023-04-21T11:07:30;634.27;;;165.70;;
75156;SDS011;63736;50.076;8.198;2023-04-21T11:09:58;623.40;;;162.10;;
75156;SDS011;63736;50.076;8.198;2023-04-21T11:12:29;616.17;;;160.97;;
75156;SDS011;63736;50.076;8.198;2023-04-21T11:14:56;615.17;;;160.80;;
75156;SDS011;63736;50.076;8.198;2023-04-21T11:17:22;616.00;;;162.63;;
75156;SDS011;63736;50.076;8.198;2023-04-21T11:19:52;614.35;;;161.38;;
75156;SDS011;63736;50.076;8.198;2023-04-21T11:22:19;616.55;;;160.90;;
75156;SDS011;63736;50.076;8.198;2023-04-21T11:24:47;613.33;;;162.57;;
75156;SDS011;63736;50.076;8.198;2023-04-21T11:27:14;608.53;;;159.82;;
75156;SDS011;63736;50.076;8.198;2023-04-21T11:29:40;606.63;;;161.17;;
75156;SDS011;63736;50.076;8.198;2023-04-21T11:32:06;615.67;;;161.73;;
75156;SDS011;63736;50.076;8.198;2023-04-21T11:34:32;645.78;;;171.57;;
75156;SDS011;63736;50.076;8.198;2023-04-21T11:36:58;634.53;;;168.20;;
75156;SDS011;63736;50.076;8.198;2023-04-21T11:39:23;638.17;;;171.97;;
75156;SDS011;63736;50.076;8.198;2023-04-21T11:41:49;633.73;;;171.13;;
75156;SDS011;63736;50.076;8.198;2023-04-21T11:47:15;629.38;;;168.30;;
75156;SDS011;63736;50.076;8.198;2023-04-21T11:49:50;627.43;;;167.53;;
75156;SDS011;63736;50.076;8.198;2023-04-21T11:55:00;623.88;;;167.35;;
75156;SDS011;63736;50.076;8.198;2023-04-21T11:57:38;621.10;;;167.20;;
75156;SDS011;63736;50.076;8.198;2023-04-21T12:00:04;618.92;;;164.93;;
75156;SDS011;63736;50.076;8.198;2023-04-21T12:02:31;618.33;;;164.20;;
75156;SDS011;63736;50.076;8.198;2023-04-21T12:04:57;619.92;;;164.60;;
75156;SDS011;63736;50.076;8.198;2023-04-21T12:07:45;618.60;;;164.13;;
75156;SDS011;63736;50.076;8.198;2023-04-21T12:10:16;620.20;;;164.55;;
75156;SDS011;63736;50.076;8.198;2023-04-21T12:12:43;620.40;;;165.85;;
75156;SDS011;63736;50.076;8.198;2023-04-21T12:15:11;619.47;;;164.90;;
75156;SDS011;63736;50.076;8.198;2023-04-21T12:17:43;620.25;;;165.30;;
75156;SDS011;63736;50.076;8.198;2023-04-21T12:20:09;617.50;;;163.75;;
75156;SDS011;63736;50.076;8.198;2023-04-21T12:22:35;659.55;;;175.77;;
75156;SDS011;63736;50.076;8.198;2023-04-21T12:25:00;640.07;;;167.40;;
75156;SDS011;63736;50.076;8.198;2023-04-21T12:27:26;650.70;;;173.23;;
75156;SDS011;63736;50.076;8.198;2023-04-21T12:29:52;653.30;;;173.48;;
75156;SDS011;63736;50.076;8.198;2023-04-21T12:32:17;645.33;;;171.17;;
75156;SDS011;63736;50.076;8.198;2023-04-21T12:34:42;645.17;;;171.63;;
75156;SDS011;63736;50.076;8.198;2023-04-21T12:37:07;643.43;;;171.17;;
75156;SDS011;63736;50.076;8.198;2023-04-21T12:39:33;639.77;;;168.90;;
75156;SDS011;63736;50.076;8.198;2023-04-21T12:41:58;638.07;;;169.03;;
75156;SDS011;63736;50.076;8.198;2023-04-21T12:44:24;633.58;;;166.05;;
75156;SDS011;63736;50.076;8.198;2023-04-21T12:46:50;633.90;;;165.97;;
75156;SDS011;63736;50.076;8.198;2023-04-21T12:49:16;632.50;;;166.57;;
75156;SDS011;63736;50.076;8.198;2023-04-21T12:51:42;630.03;;;166.05;;
75156;SDS011;63736;50.076;8.198;2023-04-21T12:54:08;626.45;;;163.95;;
75156;SDS011;63736;50.076;8.198;2023-04-21T12:56:34;626.03;;;164.40;;
75156;SDS011;63736;50.076;8.198;2023-04-21T12:59:00;626.45;;;164.20;;
75156;SDS011;63736;50.076;8.198;2023-04-21T13:01:25;625.33;;;162.70;;
75156;SDS011;63736;50.076;8.198;2023-04-21T13:03:50;627.57;;;164.27;;
75156;SDS011;63736;50.076;8.198;2023-04-21T13:06:16;626.43;;;163.30;;
75156;SDS011;63736;50.076;8.198;2023-04-21T13:08:41;630.67;;;165.23;;
75156;SDS011;63736;50.076;8.198;2023-04-21T13:11:06;630.23;;;166.00;;
75156;SDS011;63736;50.076;8.198;2023-04-21T13:13:32;628.43;;;164.20;;
75156;SDS011;63736;50.076;8.198;2023-04-21T13:15:57;630.00;;;166.37;;
75156;SDS011;63736;50.076;8.198;2023-04-21T13:18:22;630.43;;;165.37;;
75156;SDS011;63736;50.076;8.198;2023-04-21T13:20:47;630.47;;;165.40;;
75156;SDS011;63736;50.076;8.198;2023-04-21T13:23:13;625.90;;;161.83;;
75156;SDS011;63736;50.076;8.198;2023-04-21T13:25:39;624.07;;;162.27;;
75156;SDS011;63736;50.076;8.198;2023-04-21T13:28:05;620.13;;;161.77;;
75156;SDS011;63736;50.076;8.198;2023-04-21T13:30:34;618.35;;;160.52;;
75156;SDS011;63736;50.076;8.198;2023-04-21T13:33:00;617.10;;;161.05;;
75156;SDS011;63736;50.076;8.198;2023-04-21T13:35:26;618.03;;;161.10;;
75156;SDS011;63736;50.076;8.198;2023-04-21T13:37:51;618.77;;;161.93;;
75156;SDS011;63736;50.076;8.198;2023-04-21T13:40:16;620.73;;;163.63;;
75156;SDS011;63736;50.076;8.198;2023-04-21T13:42:41;621.90;;;164.03;;
75156;SDS011;63736;50.076;8.198;2023-04-21T13:45:07;620.80;;;162.43;;
75156;SDS011;63736;50.076;8.198;2023-04-21T13:47:33;622.80;;;164.23;;
75156;SDS011;63736;50.076;8.198;2023-04-21T13:49:58;621.83;;;162.82;;
75156;SDS011;63736;50.076;8.198;2023-04-21T13:52:24;619.30;;;161.68;;
75156;SDS011;63736;50.076;8.198;2023-04-21T13:54:51;619.90;;;161.27;;
75156;SDS011;63736;50.076;8.198;2023-04-21T13:57:17;619.10;;;160.65;;
75156;SDS011;63736;50.076;8.198;2023-04-21T13:59:42;621.80;;;163.47;;
75156;SDS011;63736;50.076;8.198;2023-04-21T14:02:07;619.70;;;162.33;;